createdAt,value
2019-05-30T00:01:34.418Z,102055.59
2019-05-30T00:04:04.873Z,102051.80
2019-05-30T00:06:35.931Z,102047.56
2019-05-30T00:09:08.593Z,102056.05
2019-05-30T00:11:38.076Z,102052.62
2019-05-30T00:14:07.670Z,102043.14
2019-05-30T00:16:37.349Z,102045.78
2019-05-30T00:19:06.967Z,102043.00
2019-05-30T00:21:36.383Z,102039.19
2019-05-30T00:24:06.235Z,102040.84
2019-05-30T00:26:35.858Z,102044.41
2019-05-30T00:29:06.683Z,102043.27
2019-05-30T00:31:36.295Z,102043.91
2019-05-30T00:34:06.024Z,102050.25
2019-05-30T00:36:35.526Z,102038.97
2019-05-30T00:39:06.698Z,102031.00
2019-05-30T00:41:36.170Z,102036.08
2019-05-30T00:44:06.292Z,102034.02
2019-05-30T00:46:35.884Z,102029.16
2019-05-30T00:49:06.603Z,102022.05
2019-05-30T00:51:36.203Z,102027.55
2019-05-30T00:54:07.011Z,102026.92
2019-05-30T00:56:36.888Z,102020.84
2019-05-30T00:59:06.972Z,102028.41
2019-05-30T01:01:36.441Z,102026.23
2019-05-30T01:04:06.984Z,102028.94
2019-05-30T01:06:36.615Z,102022.47
2019-05-30T01:09:07.478Z,102018.80
2019-05-30T01:11:37.057Z,102015.45
2019-05-30T01:14:07.499Z,102011.47
2019-05-30T01:16:37.401Z,102014.98
2019-05-30T01:19:07.389Z,102009.23
2019-05-30T01:21:37.023Z,102003.78
2019-05-30T01:24:07.674Z,102003.05
2019-05-30T01:26:37.874Z,101993.05
2019-05-30T01:29:09.263Z,101992.17
2019-05-30T01:31:38.778Z,101986.01
2019-05-30T01:34:08.948Z,101980.75
2019-05-30T01:36:38.408Z,101981.97
2019-05-30T01:39:08.253Z,101979.86
2019-05-30T01:41:38.453Z,101973.27
2019-05-30T01:44:08.405Z,101972.84
2019-05-30T01:46:39.621Z,101967.88
2019-05-30T01:49:09.075Z,101963.81
2019-05-30T01:51:38.538Z,101961.70
2019-05-30T01:54:08.786Z,101953.00
2019-05-30T01:56:38.381Z,101946.41
2019-05-30T01:59:08.905Z,101943.47
2019-05-30T02:01:38.461Z,101945.70
2019-05-30T02:04:09.327Z,101927.59
2019-05-30T02:06:39.197Z,101932.38
2019-05-30T02:09:10.594Z,101926.00
2019-05-30T02:11:40.772Z,101923.49
2019-05-30T02:14:10.707Z,101914.33
2019-05-30T02:16:40.162Z,101912.89
2019-05-30T02:19:10.573Z,101906.77
2019-05-30T02:21:40.190Z,101909.52
2019-05-30T02:24:12.096Z,101908.20
2019-05-30T02:26:40.853Z,101906.43
2019-05-30T02:29:10.529Z,101902.88
2019-05-30T02:31:40.177Z,101899.91
2019-05-30T02:34:11.945Z,101898.22
2019-05-30T02:36:40.994Z,101895.98
2019-05-30T02:39:11.951Z,101895.31
2019-05-30T02:41:41.812Z,101890.17
2019-05-30T02:44:12.465Z,101893.81
2019-05-30T02:46:42.334Z,101888.31
2019-05-30T02:49:13.851Z,101888.92
2019-05-30T02:51:43.368Z,101891.46
2019-05-30T02:54:13.507Z,101893.70
2019-05-30T02:56:43.157Z,101890.20
2019-05-30T02:59:13.756Z,101889.05
2019-05-30T03:02:00.379Z,101895.64
2019-05-30T03:04:14.783Z,101893.00
2019-05-30T03:06:44.469Z,101898.05
2019-05-30T03:09:14.043Z,101903.02
2019-05-30T03:11:43.885Z,101901.77
2019-05-30T03:14:19.148Z,101897.87
2019-05-30T03:16:44.803Z,101903.02
2019-05-30T03:19:14.490Z,101905.70
2019-05-30T03:21:44.038Z,101912.53
2019-05-30T03:24:14.321Z,101906.73
2019-05-30T03:26:43.959Z,101902.84
2019-05-30T03:29:14.321Z,101898.50
2019-05-30T03:31:44.951Z,101892.77
2019-05-30T03:34:25.614Z,101895.77
2019-05-30T03:36:47.280Z,101897.48
2019-05-30T03:39:16.809Z,101894.31
2019-05-30T03:41:46.340Z,101890.36
2019-05-30T03:44:16.073Z,101889.96
2019-05-30T03:46:54.486Z,101898.00
2019-05-30T03:49:27.151Z,101896.69
2019-05-30T03:52:00.135Z,101896.75
2019-05-30T03:54:30.333Z,101893.88
2019-05-30T03:57:13.436Z,101890.26
2019-05-30T03:59:58.096Z,101896.06
2019-05-30T04:02:56.057Z,101897.77
2019-05-30T04:05:15.994Z,101890.66
2019-05-30T04:07:48.086Z,101894.47
2019-05-30T04:10:20.380Z,101894.08
2019-05-30T04:13:19.275Z,101889.20
2019-05-30T04:15:48.967Z,101892.23
2019-05-30T04:18:19.598Z,101898.36
2019-05-30T04:20:51.795Z,101900.27
2019-05-30T04:23:21.219Z,101889.20
2019-05-30T04:25:50.698Z,101891.58
2019-05-30T04:28:20.101Z,101887.45
2019-05-30T04:30:50.426Z,101894.48
2019-05-30T04:33:32.347Z,101897.84
2019-05-30T04:35:51.010Z,101892.25
2019-05-30T04:38:20.529Z,101893.40
2019-05-30T04:40:50.195Z,101894.58
2019-05-30T04:43:20.252Z,101896.57
2019-05-30T04:45:51.526Z,101900.77
2019-05-30T04:48:21.465Z,101898.14
2019-05-30T04:50:51.800Z,101904.41
2019-05-30T04:53:21.298Z,101903.16
2019-05-30T04:55:50.998Z,101904.87
2019-05-30T04:58:23.769Z,101914.61
2019-05-30T05:00:51.616Z,101914.34
2019-05-30T05:03:41.748Z,101917.03
2019-05-30T05:05:52.445Z,101911.00
2019-05-30T05:08:22.248Z,101913.70
2019-05-30T05:10:51.830Z,101917.59
2019-05-30T05:13:22.598Z,101913.70
2019-05-30T05:15:52.191Z,101913.72
2019-05-30T05:18:23.236Z,101915.09
2019-05-30T05:20:52.828Z,101918.59
2019-05-30T05:23:23.237Z,101911.27
2019-05-30T05:26:01.086Z,101906.52
2019-05-30T05:28:24.923Z,101893.97
2019-05-30T05:30:54.398Z,101904.10
2019-05-30T05:33:24.753Z,101911.02
2019-05-30T05:35:54.232Z,101899.48
2019-05-30T05:38:24.442Z,101910.16
2019-05-30T05:40:54.086Z,101907.91
2019-05-30T05:43:24.464Z,101911.21
2019-05-30T05:45:54.046Z,101911.61
2019-05-30T05:48:24.728Z,101907.44
2019-05-30T05:50:54.304Z,101910.47
2019-05-30T05:53:24.967Z,101907.27
2019-05-30T05:55:54.685Z,101908.12
2019-05-30T05:58:26.177Z,101906.34
2019-05-30T06:00:57.801Z,101918.25
2019-05-30T06:03:28.286Z,101922.20
2019-05-30T06:05:57.761Z,101903.43
2019-05-30T06:08:27.717Z,101920.28
2019-05-30T06:10:57.205Z,101923.56
2019-05-30T06:13:26.626Z,101930.02
2019-05-30T06:15:56.065Z,101930.42
2019-05-30T06:18:28.328Z,101933.39
2019-05-30T06:20:57.883Z,101933.84
2019-05-30T06:23:27.782Z,101942.21
2019-05-30T06:25:57.295Z,101944.78
2019-05-30T06:28:28.195Z,101945.70
2019-05-30T06:30:59.034Z,101945.64
2019-05-30T06:33:29.203Z,101945.70
2019-05-30T06:35:58.773Z,101937.59
2019-05-30T06:38:29.411Z,101939.76
2019-05-30T06:40:59.045Z,101945.37
2019-05-30T06:43:28.506Z,101942.67
2019-05-30T06:45:57.926Z,101944.78
2019-05-30T06:48:28.839Z,101947.33
2019-05-30T06:50:58.322Z,101951.28
2019-05-30T06:53:27.819Z,101951.16
2019-05-30T06:55:57.255Z,101945.55
2019-05-30T06:58:43.672Z,101945.37
2019-05-30T07:00:57.929Z,101946.62
2019-05-30T07:03:28.488Z,101935.11
2019-05-30T07:05:58.764Z,101938.56
2019-05-30T07:08:28.883Z,101937.86
2019-05-30T07:10:58.473Z,101942.27
2019-05-30T07:13:29.218Z,101966.32
2019-05-30T07:15:58.947Z,101947.48
2019-05-30T07:18:31.902Z,101947.88
2019-05-30T07:20:59.898Z,101948.21
2019-05-30T07:23:30.115Z,101950.05
2019-05-30T07:26:03.265Z,101952.47
2019-05-30T07:28:32.018Z,101945.88
2019-05-30T07:31:01.836Z,101955.65
2019-05-30T07:33:32.912Z,101945.63
2019-05-30T07:36:02.509Z,101951.60
2019-05-30T07:38:32.615Z,101962.88
2019-05-30T07:41:02.112Z,101948.44
2019-05-30T07:43:33.483Z,101958.40
2019-05-30T07:46:03.122Z,101966.64
2019-05-30T07:48:32.552Z,101962.06
2019-05-30T07:51:01.995Z,101959.06
2019-05-30T07:53:32.711Z,101971.50
2019-05-30T07:56:02.347Z,101963.92
2019-05-30T07:58:31.899Z,101968.97
2019-05-30T08:01:01.440Z,101969.36
2019-05-30T08:03:30.858Z,101971.94
2019-05-30T08:06:00.418Z,101961.84
2019-05-30T08:08:29.913Z,101954.99
2019-05-30T08:11:09.110Z,101966.59
2019-05-30T08:13:31.104Z,101964.52
2019-05-30T08:16:00.634Z,101957.03
2019-05-30T08:18:30.132Z,101957.43
2019-05-30T08:20:59.634Z,101962.58
2019-05-30T08:23:30.087Z,101966.99
2019-05-30T08:25:59.778Z,101966.14
2019-05-30T08:28:30.301Z,101978.87
2019-05-30T08:31:01.455Z,101979.59
2019-05-30T08:33:31.370Z,101980.45
2019-05-30T08:36:05.212Z,101988.45
2019-05-30T08:38:33.156Z,101982.16
2019-05-30T08:41:02.624Z,101997.16
2019-05-30T08:43:33.310Z,102000.85
2019-05-30T08:46:02.945Z,101990.36
2019-05-30T08:48:32.918Z,101987.55
2019-05-30T08:51:03.934Z,101993.80
2019-05-30T08:53:34.379Z,101994.67
2019-05-30T08:56:05.616Z,101995.92
2019-05-30T08:58:35.139Z,101991.97
2019-05-30T09:01:06.125Z,101988.14
2019-05-30T09:03:35.917Z,101984.65
2019-05-30T09:06:05.443Z,101989.65
2019-05-30T09:08:35.965Z,101989.40
2019-05-30T09:11:05.849Z,101993.89
2019-05-30T09:13:35.983Z,102000.36
2019-05-30T09:16:08.224Z,102004.64
2019-05-30T09:18:38.570Z,102009.46
2019-05-30T09:21:08.953Z,102016.45
2019-05-30T09:23:39.191Z,102019.50
2019-05-30T09:26:09.662Z,102020.81
2019-05-30T09:28:40.573Z,102032.34
2019-05-30T09:31:10.280Z,102015.91
2019-05-30T09:33:40.929Z,102014.55
2019-05-30T09:36:13.523Z,102010.78
2019-05-30T09:38:43.436Z,102013.61
2019-05-30T09:41:14.694Z,102010.95
2019-05-30T09:43:44.754Z,102013.91
2019-05-30T09:46:14.822Z,102008.39
2019-05-30T09:48:44.789Z,102025.05
2019-05-30T09:51:14.455Z,102011.64
2019-05-30T09:53:44.057Z,102009.00
2019-05-30T09:56:13.442Z,102008.67
2019-05-30T09:58:43.993Z,102013.94
2019-05-30T10:01:13.614Z,102017.70
2019-05-30T10:03:44.850Z,102023.48
2019-05-30T10:06:28.475Z,102027.98
2019-05-30T10:08:47.762Z,102024.95
2019-05-30T10:11:17.303Z,102024.65
2019-05-30T10:13:48.056Z,102034.11
2019-05-30T10:16:17.939Z,102033.72
2019-05-30T10:18:49.022Z,102034.36
2019-05-30T10:21:19.418Z,102032.95
2019-05-30T10:23:49.476Z,102033.25
2019-05-30T10:26:19.204Z,102038.55
2019-05-30T10:28:49.547Z,102047.83
2019-05-30T10:31:19.269Z,102047.23
2019-05-30T10:33:49.340Z,102038.42
2019-05-30T10:36:20.237Z,102044.97
2019-05-30T10:38:50.421Z,102041.80
2019-05-30T10:41:20.558Z,102050.22
2019-05-30T10:43:51.158Z,102048.08
2019-05-30T10:46:21.059Z,102050.18
2019-05-30T10:48:50.916Z,102054.06
2019-05-30T10:51:20.652Z,102044.79
2019-05-30T10:53:50.852Z,102051.38
2019-05-30T10:56:21.287Z,102053.07
2019-05-30T10:58:50.863Z,102056.83
2019-05-30T11:01:20.752Z,102059.39
2019-05-30T11:03:50.427Z,102058.16
2019-05-30T11:06:34.480Z,102067.55
2019-05-30T11:09:04.708Z,102058.98
2019-05-30T11:11:34.170Z,102067.54
2019-05-30T11:14:03.931Z,102061.93
2019-05-30T11:16:33.515Z,102064.45
2019-05-30T11:19:07.480Z,102059.04
2019-05-30T11:21:34.087Z,102072.98
2019-05-30T11:24:03.649Z,102065.88
2019-05-30T11:26:33.097Z,102066.59
2019-05-30T11:29:02.608Z,102072.12
2019-05-30T11:31:32.056Z,102075.95
2019-05-30T11:34:01.674Z,102074.72
2019-05-30T11:36:31.157Z,102076.17
2019-05-30T11:39:00.607Z,102068.38
2019-05-30T11:41:30.025Z,102071.16
2019-05-30T11:44:03.306Z,102069.39
2019-05-30T11:46:30.855Z,102065.53
2019-05-30T11:49:00.557Z,102066.65
2019-05-30T11:51:29.981Z,102066.83
2019-05-30T11:54:00.910Z,102074.02
2019-05-30T11:56:30.802Z,102071.39
2019-05-30T11:59:00.258Z,102072.43
2019-05-30T12:01:29.780Z,102069.48
2019-05-30T12:04:00.682Z,102068.89
2019-05-30T12:06:31.117Z,102071.19
2019-05-30T12:09:01.132Z,102077.37
2019-05-30T12:11:30.689Z,102076.09
2019-05-30T12:14:01.390Z,102078.23
2019-05-30T12:16:31.255Z,102084.22
2019-05-30T12:19:01.929Z,102077.31
2019-05-30T12:21:31.722Z,102087.47
2019-05-30T12:24:02.422Z,102093.06
2019-05-30T12:26:34.018Z,102093.72
2019-05-30T12:29:03.286Z,102094.66
2019-05-30T12:31:32.758Z,102105.67
2019-05-30T12:34:02.888Z,102098.45
2019-05-30T12:36:32.329Z,102093.52
2019-05-30T12:39:02.681Z,102096.97
2019-05-30T12:41:32.404Z,102105.52
2019-05-30T12:44:01.858Z,102105.52
2019-05-30T12:46:31.633Z,102105.02
2019-05-30T12:49:01.568Z,102111.15
2019-05-30T12:51:31.216Z,102112.33
2019-05-30T12:54:00.941Z,102107.15
2019-05-30T12:56:30.385Z,102092.77
2019-05-30T12:59:01.136Z,102118.42
2019-05-30T13:01:30.685Z,102118.42
2019-05-30T13:04:01.111Z,102113.20
2019-05-30T13:06:30.633Z,102114.91
2019-05-30T13:09:01.180Z,102108.06
2019-05-30T13:11:30.670Z,102110.03
2019-05-30T13:14:00.682Z,102109.39
2019-05-30T13:16:30.377Z,102112.73
2019-05-30T13:19:00.079Z,102103.73
2019-05-30T13:21:29.779Z,102113.64
2019-05-30T13:24:03.684Z,102111.06
2019-05-30T13:26:33.207Z,102108.17
2019-05-30T13:29:02.661Z,102117.92
2019-05-30T13:31:32.666Z,102105.73
2019-05-30T13:34:03.064Z,102121.09
2019-05-30T13:36:32.558Z,102118.23
2019-05-30T13:39:03.153Z,102120.32
2019-05-30T13:41:32.766Z,102126.45
2019-05-30T13:44:04.419Z,102118.77
2019-05-30T13:46:33.421Z,102118.36
2019-05-30T13:49:04.655Z,102124.27
2019-05-30T13:51:34.374Z,102139.13
2019-05-30T13:54:05.189Z,102128.36
2019-05-30T13:56:34.910Z,102132.56
2019-05-30T13:59:05.863Z,102133.91
2019-05-30T14:01:35.484Z,102125.40
2019-05-30T14:04:06.313Z,102130.98
2019-05-30T14:06:35.790Z,102121.39
2019-05-30T14:09:06.775Z,102128.59
2019-05-30T14:11:36.455Z,102134.12
2019-05-30T14:14:06.882Z,102139.79
2019-05-30T14:16:36.436Z,102139.51
2019-05-30T14:19:09.370Z,102148.75
2019-05-30T14:21:37.145Z,102138.13
2019-05-30T14:24:07.464Z,102135.43
2019-05-30T14:26:37.069Z,102131.98
2019-05-30T14:29:07.709Z,102141.61
2019-05-30T14:31:37.151Z,102146.80
2019-05-30T14:34:06.592Z,102140.83
2019-05-30T14:36:37.011Z,102148.41
2019-05-30T14:39:08.885Z,102150.05
2019-05-30T14:41:38.571Z,102159.66
2019-05-30T14:44:08.103Z,102162.69
2019-05-30T14:46:37.534Z,102152.20
2019-05-30T14:49:07.095Z,102158.70
2019-05-30T14:51:36.552Z,102144.73
2019-05-30T14:54:06.904Z,102164.08
2019-05-30T14:56:36.855Z,102153.69
2019-05-30T14:59:06.892Z,102147.28
2019-05-30T15:01:36.473Z,102152.33
2019-05-30T15:04:07.068Z,102154.44
2019-05-30T15:06:36.510Z,102143.98
2019-05-30T15:09:20.165Z,102162.92
2019-05-30T15:11:38.599Z,102157.41
2019-05-30T15:14:08.746Z,102158.70
2019-05-30T15:16:38.270Z,102155.05
2019-05-30T15:19:10.294Z,102156.59
2019-05-30T15:21:39.977Z,102152.24
2019-05-30T15:24:09.754Z,102157.02
2019-05-30T15:26:39.311Z,102148.61
2019-05-30T15:29:09.999Z,102161.92
2019-05-30T15:31:39.531Z,102168.34
2019-05-30T15:34:09.018Z,102161.55
2019-05-30T15:36:38.720Z,102173.89
2019-05-30T15:39:09.128Z,102177.82
2019-05-30T15:41:38.782Z,102166.41
2019-05-30T15:44:09.402Z,102183.82
2019-05-30T15:46:39.391Z,102182.39
2019-05-30T15:49:10.116Z,102188.70
2019-05-30T15:51:39.815Z,102188.59
2019-05-30T15:54:09.400Z,102177.55
2019-05-30T15:56:38.914Z,102186.86
2019-05-30T15:59:09.536Z,102189.16
2019-05-30T16:01:39.121Z,102188.45
2019-05-30T16:04:08.640Z,102192.45
2019-05-30T16:06:38.088Z,102184.77
2019-05-30T16:09:07.682Z,102178.88
2019-05-30T16:11:37.204Z,102190.97
2019-05-30T16:14:06.679Z,102190.09
2019-05-30T16:16:40.096Z,102190.09
2019-05-30T16:19:19.581Z,102181.83
2019-05-30T16:21:38.640Z,102182.03
2019-05-30T16:24:08.281Z,102183.15
2019-05-30T16:26:37.706Z,102177.05
2019-05-30T16:29:07.212Z,102177.05
2019-05-30T16:31:36.624Z,102179.03
2019-05-30T16:34:06.143Z,102187.70
2019-05-30T16:36:35.570Z,102187.70
2019-05-30T16:39:10.506Z,102181.63
2019-05-30T16:41:42.926Z,102181.63
2019-05-30T16:44:11.058Z,102194.45
2019-05-30T16:46:40.455Z,102188.28
2019-05-30T16:49:11.834Z,102190.25
2019-05-30T16:51:41.258Z,102200.04
2019-05-30T16:54:10.724Z,102194.34
2019-05-30T16:56:40.222Z,102204.73
2019-05-30T16:59:11.204Z,102204.73
2019-05-30T17:01:40.643Z,102189.30
2019-05-30T17:04:10.088Z,102189.20
2019-05-30T17:06:39.508Z,102189.20
2019-05-30T17:09:09.080Z,102189.36
2019-05-30T17:11:38.524Z,102193.81
2019-05-30T17:14:09.587Z,102193.81
2019-05-30T17:16:39.035Z,102182.99
2019-05-30T17:19:08.490Z,102185.32
2019-05-30T17:21:37.920Z,102189.68
2019-05-30T17:24:07.383Z,102189.68
2019-05-30T17:26:36.813Z,102183.33
2019-05-30T17:29:06.237Z,102183.33
2019-05-30T17:31:36.839Z,102189.87
2019-05-30T17:34:06.262Z,102195.78
2019-05-30T17:36:35.791Z,102189.42
2019-05-30T17:39:07.894Z,102189.42
2019-05-30T17:41:37.426Z,102181.95
2019-05-30T17:44:07.039Z,102178.37
2019-05-30T17:46:36.569Z,102185.95
2019-05-30T17:49:06.108Z,102180.39
2019-05-30T17:51:35.531Z,102181.83
2019-05-30T17:54:05.195Z,102180.03
2019-05-30T17:56:34.662Z,102179.46
2019-05-30T17:59:04.203Z,102179.14
2019-05-30T18:01:36.636Z,102177.39
2019-05-30T18:04:06.247Z,102183.83
2019-05-30T18:06:35.705Z,102183.83
2019-05-30T18:09:07.884Z,102190.63
2019-05-30T18:11:37.491Z,102190.63
2019-05-30T18:14:06.948Z,102183.73
2019-05-30T18:16:36.454Z,102186.11
2019-05-30T18:19:05.981Z,102187.59
2019-05-30T18:21:35.570Z,102179.36
2019-05-30T18:24:05.238Z,102190.88
2019-05-30T18:26:34.695Z,102190.88
2019-05-30T18:29:04.232Z,102186.94
2019-05-30T18:31:33.694Z,102190.83
2019-05-30T18:34:03.102Z,102193.45
2019-05-30T18:36:32.715Z,102192.57
2019-05-30T18:39:02.428Z,102188.39
2019-05-30T18:41:32.850Z,102187.90
2019-05-30T18:44:02.274Z,102184.88
2019-05-30T18:46:31.718Z,102188.12
2019-05-30T18:49:01.146Z,102184.28
2019-05-30T18:51:30.608Z,102188.51
2019-05-30T18:54:00.019Z,102183.20
2019-05-30T18:56:30.659Z,102196.98
2019-05-30T18:59:00.169Z,102197.88
2019-05-30T19:01:29.759Z,102200.30
2019-05-30T19:03:59.354Z,102197.09
2019-05-30T19:06:29.984Z,102201.82
2019-05-30T19:08:59.482Z,102201.82
2019-05-30T19:11:34.378Z,102203.55
2019-05-30T19:14:00.129Z,102210.23
2019-05-30T19:16:30.803Z,102207.44
2019-05-30T19:19:00.357Z,102212.01
2019-05-30T19:21:30.065Z,102222.22
2019-05-30T19:23:59.641Z,102223.05
2019-05-30T19:26:30.355Z,102221.02
2019-05-30T19:28:59.892Z,102219.30
2019-05-30T19:31:30.573Z,102226.52
2019-05-30T19:34:00.068Z,102216.00
2019-05-30T19:36:31.149Z,102217.36
2019-05-30T19:39:00.697Z,102229.66
2019-05-30T19:41:46.044Z,102228.97
2019-05-30T19:44:01.346Z,102225.38
2019-05-30T19:46:32.203Z,102226.20
2019-05-30T19:49:01.976Z,102222.19
2019-05-30T19:51:33.094Z,102231.30
2019-05-30T19:54:03.446Z,102236.75
2019-05-30T19:56:33.313Z,102231.98
2019-05-30T19:59:03.765Z,102230.14
2019-05-30T20:01:33.801Z,102233.02
2019-05-30T20:04:03.357Z,102231.48
2019-05-30T20:06:32.864Z,102235.14
2019-05-30T20:09:02.514Z,102230.53
2019-05-30T20:11:33.543Z,102223.00
2019-05-30T20:14:04.686Z,102220.57
2019-05-30T20:16:34.163Z,102221.15
2019-05-30T20:19:03.600Z,102217.18
2019-05-30T20:21:33.746Z,102216.22
2019-05-30T20:24:03.126Z,102218.86
2019-05-30T20:26:34.435Z,102217.94
2019-05-30T20:29:04.021Z,102221.44
2019-05-30T20:31:33.555Z,102217.79
2019-05-30T20:34:02.982Z,102224.15
2019-05-30T20:36:32.430Z,102228.83
2019-05-30T20:39:01.921Z,102224.00
2019-05-30T20:41:31.517Z,102221.89
2019-05-30T20:44:01.125Z,102222.22
2019-05-30T20:46:30.553Z,102219.81
2019-05-30T20:49:00.014Z,102226.64
2019-05-30T20:51:29.434Z,102223.53
2019-05-30T20:53:58.900Z,102229.77
2019-05-30T20:56:29.598Z,102227.02
2019-05-30T20:58:59.258Z,102226.66
2019-05-30T21:01:28.651Z,102230.05
2019-05-30T21:03:58.099Z,102227.02
2019-05-30T21:06:28.610Z,102223.75
2019-05-30T21:08:59.922Z,102228.50
2019-05-30T21:11:31.021Z,102218.16
2019-05-30T21:14:01.960Z,102218.08
2019-05-30T21:16:33.552Z,102218.75
2019-05-30T21:19:03.076Z,102222.10
2019-05-30T21:21:32.505Z,102213.08
2019-05-30T21:24:01.958Z,102213.89
2019-05-30T21:26:31.441Z,102221.34
2019-05-30T21:29:00.889Z,102221.72
2019-05-30T21:31:30.354Z,102221.84
2019-05-30T21:33:59.852Z,102227.84
2019-05-30T21:36:29.362Z,102237.86
2019-05-30T21:38:58.801Z,102234.81
2019-05-30T21:41:28.293Z,102238.02
2019-05-30T21:43:57.734Z,102238.32
2019-05-30T21:46:27.282Z,102244.48
2019-05-30T21:48:56.744Z,102243.94
2019-05-30T21:51:26.262Z,102251.80
2019-05-30T21:53:56.076Z,102252.12
2019-05-30T21:56:25.602Z,102252.51
2019-05-30T21:58:55.064Z,102265.28
2019-05-30T22:01:27.583Z,102261.78
2019-05-30T22:03:57.095Z,102259.52
2019-05-30T22:06:26.612Z,102261.02
2019-05-30T22:08:56.062Z,102262.94
2019-05-30T22:11:25.592Z,102257.59
2019-05-30T22:13:55.139Z,102260.19
2019-05-30T22:16:24.685Z,102262.78
2019-05-30T22:18:54.190Z,102268.83
2019-05-30T22:21:23.717Z,102264.66
2019-05-30T22:23:53.184Z,102259.27
2019-05-30T22:26:22.715Z,102262.12
2019-05-30T22:28:52.733Z,102262.58
2019-05-30T22:31:22.433Z,102259.40
2019-05-30T22:33:53.149Z,102252.53
2019-05-30T22:36:22.903Z,102252.13
2019-05-30T22:38:53.149Z,102252.27
2019-05-30T22:41:22.859Z,102256.34
2019-05-30T22:43:52.889Z,102262.30
2019-05-30T22:46:24.150Z,102253.12
2019-05-30T22:48:53.709Z,102260.19
2019-05-30T22:51:27.508Z,102250.94
2019-05-30T22:53:57.263Z,102254.97
2019-05-30T22:56:26.805Z,102255.94
2019-05-30T22:58:56.262Z,102255.90
2019-05-30T23:01:25.841Z,102249.69
2019-05-30T23:03:55.419Z,102247.97
2019-05-30T23:06:24.849Z,102246.68
2019-05-30T23:08:54.849Z,102255.08
2019-05-30T23:11:24.428Z,102256.40
2019-05-30T23:13:54.035Z,102250.25
2019-05-30T23:16:23.501Z,102251.11
2019-05-30T23:18:52.970Z,102251.08
2019-05-30T23:21:22.731Z,102247.57
2019-05-30T23:23:53.295Z,102247.97
2019-05-30T23:26:23.143Z,102251.11
2019-05-30T23:28:53.729Z,102247.04
2019-05-30T23:31:23.471Z,102252.33
2019-05-30T23:33:54.365Z,102252.19
2019-05-30T23:36:24.042Z,102254.51
2019-05-30T23:38:54.786Z,102257.62
2019-05-30T23:41:24.491Z,102253.19
2019-05-30T23:44:05.528Z,102247.30
2019-05-30T23:46:25.164Z,102254.05
2019-05-30T23:48:55.849Z,102248.75
2019-05-30T23:51:26.903Z,102246.50
2019-05-30T23:53:56.348Z,102239.97
2019-05-30T23:56:25.927Z,102238.71
2019-05-30T23:58:56.728Z,102238.58
